sensor_id;sensor_type;location;lat;lon;timestamp;pressure;altitude;pressure_sealevel;temperature;humidity
50854;BME280;44154;45.506;-122.806;2022-09-13T00:00:56;100481.78;;;27.87;40.66
50854;BME280;44154;45.506;-122.806;2022-09-13T00:03:23;100442.34;;;27.67;40.72
50854;BME280;44154;45.506;-122.806;2022-09-13T00:05:50;100471.91;;;27.86;41.22
50854;BME280;44154;45.506;-122.806;2022-09-13T00:08:17;100479.00;;;27.92;40.88
50854;BME280;44154;45.506;-122.806;2022-09-13T00:10:44;100483.41;;;27.93;41.01
50854;BME280;44154;45.506;-122.806;2022-09-13T00:13:12;100451.88;;;27.80;41.08
50854;BME280;44154;45.506;-122.806;2022-09-13T00:15:46;100471.84;;;27.96;40.65
50854;BME280;44154;45.506;-122.806;2022-09-13T00:18:14;100434.59;;;27.75;40.65
50854;BME280;44154;45.506;-122.806;2022-09-13T00:20:41;100437.06;;;27.76;41.02
50854;BME280;44154;45.506;-122.806;2022-09-13T00:23:08;100440.59;;;27.82;40.80
50854;BME280;44154;45.506;-122.806;2022-09-13T00:25:34;100447.66;;;27.93;40.53
50854;BME280;44154;45.506;-122.806;2022-09-13T00:28:01;100452.03;;;27.99;40.84
50854;BME280;44154;45.506;-122.806;2022-09-13T00:30:27;100441.56;;;28.01;40.59
50854;BME280;44154;45.506;-122.806;2022-09-13T00:32:54;100441.59;;;27.96;40.95
50854;BME280;44154;45.506;-122.806;2022-09-13T00:35:20;100446.78;;;28.03;40.77
50854;BME280;44154;45.506;-122.806;2022-09-13T00:37:46;100436.63;;;27.98;40.77
50854;BME280;44154;45.506;-122.806;2022-09-13T00:40:13;100436.09;;;27.96;40.63
50854;BME280;44154;45.506;-122.806;2022-09-13T00:42:39;100264.69;;;26.92;40.99
50854;BME280;44154;45.506;-122.806;2022-09-13T00:52:43;100418.50;;;27.92;40.60
50854;BME280;44154;45.506;-122.806;2022-09-13T00:55:15;100427.28;;;27.94;40.89
50854;BME280;44154;45.506;-122.806;2022-09-13T00:57:44;100429.44;;;28.08;40.71
50854;BME280;44154;45.506;-122.806;2022-09-13T01:00:13;100428.28;;;28.09;40.77
50854;BME280;44154;45.506;-122.806;2022-09-13T01:02:57;100429.13;;;28.09;41.05
50854;BME280;44154;45.506;-122.806;2022-09-13T01:05:29;100435.16;;;28.11;40.69
50854;BME280;44154;45.506;-122.806;2022-09-13T01:07:58;100386.13;;;27.84;40.64
50854;BME280;44154;45.506;-122.806;2022-09-13T01:10:25;100415.91;;;28.11;40.88
50854;BME280;44154;45.506;-122.806;2022-09-13T01:13:00;100425.50;;;28.14;40.83
50854;BME280;44154;45.506;-122.806;2022-09-13T01:15:29;100396.44;;;27.97;41.24
50854;BME280;44154;45.506;-122.806;2022-09-13T01:17:56;100411.19;;;28.17;41.67
50854;BME280;44154;45.506;-122.806;2022-09-13T01:20:30;100423.84;;;28.18;41.59
50854;BME280;44154;45.506;-122.806;2022-09-13T01:31:44;100417.97;;;28.25;41.76
50854;BME280;44154;45.506;-122.806;2022-09-13T01:34:35;100417.94;;;28.30;41.86
50854;BME280;44154;45.506;-122.806;2022-09-13T01:37:24;100416.84;;;28.31;41.81
50854;BME280;44154;45.506;-122.806;2022-09-13T01:40:27;100407.75;;;28.30;42.14
50854;BME280;44154;45.506;-122.806;2022-09-13T01:43:03;100412.66;;;28.33;41.74
50854;BME280;44154;45.506;-122.806;2022-09-13T01:45:47;100414.78;;;28.42;41.63
50854;BME280;44154;45.506;-122.806;2022-09-13T01:48:18;100416.75;;;28.41;41.62
50854;BME280;44154;45.506;-122.806;2022-09-13T01:51:06;100363.66;;;28.06;41.65
50854;BME280;44154;45.506;-122.806;2022-09-13T01:56:36;100411.53;;;28.40;41.35
50854;BME280;44154;45.506;-122.806;2022-09-13T01:59:15;100407.13;;;28.38;41.49
50854;BME280;44154;45.506;-122.806;2022-09-13T02:04:50;100383.03;;;28.25;41.22
50854;BME280;44154;45.506;-122.806;2022-09-13T02:07:35;100337.09;;;27.91;41.45
50854;BME280;44154;45.506;-122.806;2022-09-13T02:10:22;100292.25;;;27.61;41.60
50854;BME280;44154;45.506;-122.806;2022-09-13T02:12:52;100401.91;;;28.37;41.73
50854;BME280;44154;45.506;-122.806;2022-09-13T02:15:26;100411.56;;;28.34;41.85
50854;BME280;44154;45.506;-122.806;2022-09-13T02:20:35;100227.34;;;27.31;41.96
50854;BME280;44154;45.506;-122.806;2022-09-13T02:23:08;100408.78;;;28.40;42.12
50854;BME280;44154;45.506;-122.806;2022-09-13T02:25:38;100413.13;;;28.41;41.74
50854;BME280;44154;45.506;-122.806;2022-09-13T02:28:10;100391.50;;;28.34;42.06
50854;BME280;44154;45.506;-122.806;2022-09-13T02:30:40;100404.34;;;28.44;42.08
50854;BME280;44154;45.506;-122.806;2022-09-13T02:33:28;100403.19;;;28.45;42.36
50854;BME280;44154;45.506;-122.806;2022-09-13T02:35:58;100412.50;;;28.49;42.19
50854;BME280;44154;45.506;-122.806;2022-09-13T02:39:04;100412.81;;;28.47;42.29
50854;BME280;44154;45.506;-122.806;2022-09-13T02:44:30;100390.75;;;28.23;42.22
50854;BME280;44154;45.506;-122.806;2022-09-13T02:50:21;100333.28;;;27.87;42.20
50854;BME280;44154;45.506;-122.806;2022-09-13T02:56:13;100429.72;;;28.35;42.27
50854;BME280;44154;45.506;-122.806;2022-09-13T02:59:29;100406.44;;;28.23;42.04
50854;BME280;44154;45.506;-122.806;2022-09-13T03:01:38;100416.53;;;28.32;41.80
50854;BME280;44154;45.506;-122.806;2022-09-13T03:04:06;100429.91;;;28.44;41.92
50854;BME280;44154;45.506;-122.806;2022-09-13T03:06:32;100435.94;;;28.46;42.25
50854;BME280;44154;45.506;-122.806;2022-09-13T03:09:02;100443.91;;;28.48;41.93
50854;BME280;44154;45.506;-122.806;2022-09-13T03:14:45;100361.78;;;28.01;41.97
50854;BME280;44154;45.506;-122.806;2022-09-13T03:20:07;100444.19;;;28.46;41.85
50854;BME280;44154;45.506;-122.806;2022-09-13T03:28:16;100448.13;;;28.40;42.23
50854;BME280;44154;45.506;-122.806;2022-09-13T03:30:52;100422.97;;;28.23;42.12
50854;BME280;44154;45.506;-122.806;2022-09-13T03:34:07;100455.50;;;28.45;42.31
50854;BME280;44154;45.506;-122.806;2022-09-13T03:36:32;100455.75;;;28.48;41.99
50854;BME280;44154;45.506;-122.806;2022-09-13T03:39:23;100453.22;;;28.52;41.90
50854;BME280;44154;45.506;-122.806;2022-09-13T03:41:57;100445.84;;;28.47;42.09
50854;BME280;44154;45.506;-122.806;2022-09-13T03:44:28;100378.78;;;28.09;42.04
50854;BME280;44154;45.506;-122.806;2022-09-13T03:46:57;100457.28;;;28.60;42.05
50854;BME280;44154;45.506;-122.806;2022-09-13T03:49:28;100433.72;;;28.48;41.90
50854;BME280;44154;45.506;-122.806;2022-09-13T03:51:55;100456.75;;;28.63;41.93
50854;BME280;44154;45.506;-122.806;2022-09-13T03:54:26;100462.47;;;28.66;41.90
50854;BME280;44154;45.506;-122.806;2022-09-13T03:57:14;100476.53;;;28.65;41.48
50854;BME280;44154;45.506;-122.806;2022-09-13T03:59:46;100458.84;;;28.71;41.68
50854;BME280;44154;45.506;-122.806;2022-09-13T04:02:13;100466.84;;;28.72;41.70
50854;BME280;44154;45.506;-122.806;2022-09-13T04:04:40;100464.59;;;28.75;41.35
50854;BME280;44154;45.506;-122.806;2022-09-13T04:07:08;100467.06;;;28.76;41.65
50854;BME280;44154;45.506;-122.806;2022-09-13T04:09:35;100473.09;;;28.78;41.43
50854;BME280;44154;45.506;-122.806;2022-09-13T04:12:01;100466.47;;;28.79;41.33
50854;BME280;44154;45.506;-122.806;2022-09-13T04:14:28;100472.81;;;28.80;41.32
50854;BME280;44154;45.506;-122.806;2022-09-13T04:16:56;100372.66;;;28.17;41.34
50854;BME280;44154;45.506;-122.806;2022-09-13T04:19:24;100468.63;;;28.82;41.46
50854;BME280;44154;45.506;-122.806;2022-09-13T04:21:52;100471.94;;;28.84;41.30
50854;BME280;44154;45.506;-122.806;2022-09-13T04:24:19;100472.75;;;28.85;41.51
50854;BME280;44154;45.506;-122.806;2022-09-13T04:26:49;100474.69;;;28.84;41.06
50854;BME280;44154;45.506;-122.806;2022-09-13T04:29:16;100464.78;;;28.83;41.15
50854;BME280;44154;45.506;-122.806;2022-09-13T04:31:46;100447.31;;;28.69;41.21
50854;BME280;44154;45.506;-122.806;2022-09-13T04:34:12;100467.78;;;28.87;41.06
50854;BME280;44154;45.506;-122.806;2022-09-13T04:36:39;100468.28;;;28.89;41.01
50854;BME280;44154;45.506;-122.806;2022-09-13T04:39:05;100472.16;;;28.88;41.19
50854;BME280;44154;45.506;-122.806;2022-09-13T04:41:32;100475.47;;;28.90;41.02
50854;BME280;44154;45.506;-122.806;2022-09-13T04:44:00;100461.50;;;28.81;40.40
50854;BME280;44154;45.506;-122.806;2022-09-13T04:46:27;100475.16;;;28.92;40.66
50854;BME280;44154;45.506;-122.806;2022-09-13T04:48:54;100462.19;;;28.92;40.59
50854;BME280;44154;45.506;-122.806;2022-09-13T04:51:20;100459.53;;;28.87;40.63
50854;BME280;44154;45.506;-122.806;2022-09-13T04:53:51;100333.38;;;28.11;40.69
50854;BME280;44154;45.506;-122.806;2022-09-13T04:56:19;100458.97;;;28.85;40.64
50854;BME280;44154;45.506;-122.806;2022-09-13T04:58:45;100464.94;;;28.92;40.92
50854;BME280;44154;45.506;-122.806;2022-09-13T05:01:11;100437.56;;;28.77;40.61
50854;BME280;44154;45.506;-122.806;2022-09-13T05:03:37;100459.75;;;28.90;40.80
50854;BME280;44154;45.506;-122.806;2022-09-13T05:06:05;100477.84;;;28.97;40.45
50854;BME280;44154;45.506;-122.806;2022-09-13T05:08:32;100473.97;;;28.98;40.28
50854;BME280;44154;45.506;-122.806;2022-09-13T05:10:58;100447.44;;;28.83;40.50
50854;BME280;44154;45.506;-122.806;2022-09-13T05:13:25;100471.22;;;28.98;40.71
50854;BME280;44154;45.506;-122.806;2022-09-13T05:16:05;100449.00;;;28.89;40.48
50854;BME280;44154;45.506;-122.806;2022-09-13T05:18:34;100453.13;;;28.92;40.56
50854;BME280;44154;45.506;-122.806;2022-09-13T05:21:02;100458.56;;;28.97;40.43
50854;BME280;44154;45.506;-122.806;2022-09-13T05:23:29;100459.63;;;29.01;40.57
50854;BME280;44154;45.506;-122.806;2022-09-13T05:25:59;100454.94;;;29.01;40.63
50854;BME280;44154;45.506;-122.806;2022-09-13T05:28:30;100425.44;;;28.78;40.62
50854;BME280;44154;45.506;-122.806;2022-09-13T05:31:05;100447.78;;;29.00;40.17
50854;BME280;44154;45.506;-122.806;2022-09-13T05:33:34;100450.25;;;29.02;40.14
50854;BME280;44154;45.506;-122.806;2022-09-13T05:36:01;100456.56;;;29.02;40.57
50854;BME280;44154;45.506;-122.806;2022-09-13T05:38:27;100364.16;;;28.43;40.11
50854;BME280;44154;45.506;-122.806;2022-09-13T05:40:55;100454.94;;;29.01;40.07
50854;BME280;44154;45.506;-122.806;2022-09-13T05:43:23;100451.34;;;29.01;39.67
50854;BME280;44154;45.506;-122.806;2022-09-13T05:45:50;100444.47;;;28.98;39.67
50854;BME280;44154;45.506;-122.806;2022-09-13T05:48:16;100445.06;;;28.95;39.29
50854;BME280;44154;45.506;-122.806;2022-09-13T05:50:42;100448.44;;;28.92;39.46
50854;BME280;44154;45.506;-122.806;2022-09-13T05:53:08;100352.13;;;28.33;39.29
50854;BME280;44154;45.506;-122.806;2022-09-13T05:55:34;100452.00;;;28.93;38.70
50854;BME280;44154;45.506;-122.806;2022-09-13T05:58:01;100442.41;;;28.90;38.70
50854;BME280;44154;45.506;-122.806;2022-09-13T06:00:28;100438.03;;;28.84;38.70
50854;BME280;44154;45.506;-122.806;2022-09-13T06:02:55;100444.09;;;28.86;39.09
50854;BME280;44154;45.506;-122.806;2022-09-13T06:05:21;100346.25;;;28.16;38.88
50854;BME280;44154;45.506;-122.806;2022-09-13T06:07:47;100448.50;;;28.87;38.75
50854;BME280;44154;45.506;-122.806;2022-09-13T06:10:14;100447.66;;;28.86;39.25
50854;BME280;44154;45.506;-122.806;2022-09-13T06:12:40;100453.16;;;28.86;39.36
50854;BME280;44154;45.506;-122.806;2022-09-13T06:15:06;100448.50;;;28.87;39.55
50854;BME280;44154;45.506;-122.806;2022-09-13T06:17:33;100431.84;;;28.73;39.97
50854;BME280;44154;45.506;-122.806;2022-09-13T06:20:00;100425.56;;;28.67;40.22
50854;BME280;44154;45.506;-122.806;2022-09-13T06:22:26;100426.63;;;28.71;40.48
50854;BME280;44154;45.506;-122.806;2022-09-13T06:24:58;100449.31;;;28.87;40.63
50854;BME280;44154;45.506;-122.806;2022-09-13T06:27:24;100452.81;;;28.93;40.85
50854;BME280;44154;45.506;-122.806;2022-09-13T06:29:51;100399.13;;;28.66;40.67
50854;BME280;44154;45.506;-122.806;2022-09-13T06:32:17;100445.66;;;28.92;40.24
50854;BME280;44154;45.506;-122.806;2022-09-13T06:34:43;100456.69;;;28.92;40.12
50854;BME280;44154;45.506;-122.806;2022-09-13T06:37:09;100454.53;;;28.89;40.00
50854;BME280;44154;45.506;-122.806;2022-09-13T06:39:36;100405.06;;;28.49;40.42
50854;BME280;44154;45.506;-122.806;2022-09-13T06:42:02;100462.19;;;28.92;40.00
50854;BME280;44154;45.506;-122.806;2022-09-13T06:44:29;100369.50;;;28.29;39.97
50854;BME280;44154;45.506;-122.806;2022-09-13T06:46:55;100458.94;;;28.90;39.59
50854;BME280;44154;45.506;-122.806;2022-09-13T06:49:21;100460.84;;;28.89;39.67
50854;BME280;44154;45.506;-122.806;2022-09-13T06:51:47;100434.91;;;28.71;39.63
50854;BME280;44154;45.506;-122.806;2022-09-13T06:54:14;100459.75;;;28.90;39.67
50854;BME280;44154;45.506;-122.806;2022-09-13T06:56:40;100457.56;;;28.87;39.82
50854;BME280;44154;45.506;-122.806;2022-09-13T06:59:07;100373.56;;;28.36;39.45
50854;BME280;44154;45.506;-122.806;2022-09-13T07:01:39;100427.00;;;28.60;39.76
50854;BME280;44154;45.506;-122.806;2022-09-13T07:04:10;100468.81;;;28.91;39.79
50854;BME280;44154;45.506;-122.806;2022-09-13T07:06:39;100467.19;;;28.90;39.66
50854;BME280;44154;45.506;-122.806;2022-09-13T07:09:08;100467.19;;;28.90;39.78
50854;BME280;44154;45.506;-122.806;2022-09-13T07:11:37;100470.25;;;28.88;39.63
50854;BME280;44154;45.506;-122.806;2022-09-13T07:14:04;100460.16;;;28.79;39.34
50854;BME280;44154;45.506;-122.806;2022-09-13T07:16:34;100470.53;;;28.87;39.50
50854;BME280;44154;45.506;-122.806;2022-09-13T07:19:03;100475.19;;;28.86;39.25
50854;BME280;44154;45.506;-122.806;2022-09-13T07:21:34;100471.63;;;28.86;39.16
50854;BME280;44154;45.506;-122.806;2022-09-13T07:24:00;100453.59;;;28.75;39.46
50854;BME280;44154;45.506;-122.806;2022-09-13T07:26:27;100465.59;;;28.84;39.51
50854;BME280;44154;45.506;-122.806;2022-09-13T07:28:55;100451.00;;;28.83;39.41
50854;BME280;44154;45.506;-122.806;2022-09-13T07:33:54;100460.06;;;28.84;39.14
50854;BME280;44154;45.506;-122.806;2022-09-13T07:36:20;100427.25;;;28.63;39.01
50854;BME280;44154;45.506;-122.806;2022-09-13T07:38:46;100409.84;;;28.44;38.76
50854;BME280;44154;45.506;-122.806;2022-09-13T07:41:20;100374.72;;;28.30;38.69
50854;BME280;44154;45.506;-122.806;2022-09-13T07:43:47;100457.31;;;28.84;38.91
50854;BME280;44154;45.506;-122.806;2022-09-13T07:46:22;100411.88;;;28.57;38.75
50854;BME280;44154;45.506;-122.806;2022-09-13T07:48:51;100449.06;;;28.84;38.87
50854;BME280;44154;45.506;-122.806;2022-09-13T07:51:20;100445.78;;;28.82;39.18
50854;BME280;44154;45.506;-122.806;2022-09-13T07:53:48;100430.19;;;28.72;39.23
50854;BME280;44154;45.506;-122.806;2022-09-13T07:56:16;100445.19;;;28.85;39.18
50854;BME280;44154;45.506;-122.806;2022-09-13T07:58:45;100417.31;;;28.67;39.53
50854;BME280;44154;45.506;-122.806;2022-09-13T08:01:12;100440.78;;;28.84;39.85
50854;BME280;44154;45.506;-122.806;2022-09-13T08:03:39;100453.75;;;28.83;40.05
50854;BME280;44154;45.506;-122.806;2022-09-13T08:06:06;100437.53;;;28.82;39.64
50854;BME280;44154;45.506;-122.806;2022-09-13T08:08:33;100432.59;;;28.79;40.41
50854;BME280;44154;45.506;-122.806;2022-09-13T08:11:01;100447.44;;;28.83;40.85
50854;BME280;44154;45.506;-122.806;2022-09-13T08:13:28;100451.28;;;28.82;40.55
50854;BME280;44154;45.506;-122.806;2022-09-13T08:16:00;100450.50;;;28.81;41.14
50854;BME280;44154;45.506;-122.806;2022-09-13T08:18:27;100442.28;;;28.76;41.55
50854;BME280;44154;45.506;-122.806;2022-09-13T08:20:56;100425.06;;;28.65;41.77
50854;BME280;44154;45.506;-122.806;2022-09-13T08:23:26;100442.28;;;28.76;41.85
50854;BME280;44154;45.506;-122.806;2022-09-13T08:25:52;100443.91;;;28.77;41.91
50854;BME280;44154;45.506;-122.806;2022-09-13T08:28:20;100386.75;;;28.40;41.50
50854;BME280;44154;45.506;-122.806;2022-09-13T08:30:47;100442.78;;;28.78;41.55
50854;BME280;44154;45.506;-122.806;2022-09-13T08:33:14;100444.72;;;28.78;41.21
50854;BME280;44154;45.506;-122.806;2022-09-13T08:35:49;100351.72;;;28.21;41.27
50854;BME280;44154;45.506;-122.806;2022-09-13T08:38:16;100446.13;;;28.75;40.94
50854;BME280;44154;45.506;-122.806;2022-09-13T08:40:48;100444.50;;;28.74;40.85
50854;BME280;44154;45.506;-122.806;2022-09-13T08:43:24;100438.16;;;28.73;40.96
50854;BME280;44154;45.506;-122.806;2022-09-13T08:49:32;100432.66;;;28.73;41.09
50854;BME280;44154;45.506;-122.806;2022-09-13T08:54:37;100442.31;;;28.71;41.10
50854;BME280;44154;45.506;-122.806;2022-09-13T08:57:21;100435.78;;;28.67;41.09
50854;BME280;44154;45.506;-122.806;2022-09-13T09:05:20;100402.59;;;28.48;40.89
50854;BME280;44154;45.506;-122.806;2022-09-13T09:08:12;100396.59;;;28.46;40.89
50854;BME280;44154;45.506;-122.806;2022-09-13T09:10:47;100383.94;;;28.45;40.63
50854;BME280;44154;45.506;-122.806;2022-09-13T09:13:36;100427.25;;;28.63;40.51
50854;BME280;44154;45.506;-122.806;2022-09-13T09:19:27;100419.81;;;28.64;40.82
50854;BME280;44154;45.506;-122.806;2022-09-13T09:21:52;100419.00;;;28.63;40.54
50854;BME280;44154;45.506;-122.806;2022-09-13T09:24:23;100418.50;;;28.61;40.82
50854;BME280;44154;45.506;-122.806;2022-09-13T09:26:52;100416.81;;;28.60;40.79
50854;BME280;44154;45.506;-122.806;2022-09-13T09:29:27;100420.66;;;28.59;40.65
50854;BME280;44154;45.506;-122.806;2022-09-13T09:37:38;100399.38;;;28.41;40.27
50854;BME280;44154;45.506;-122.806;2022-09-13T09:40:08;100415.81;;;28.51;40.77
50854;BME280;44154;45.506;-122.806;2022-09-13T09:42:48;100422.94;;;28.52;40.73
50854;BME280;44154;45.506;-122.806;2022-09-13T09:45:33;100423.22;;;28.50;40.34
50854;BME280;44154;45.506;-122.806;2022-09-13T09:48:07;100428.44;;;28.52;40.48
50854;BME280;44154;45.506;-122.806;2022-09-13T09:50:42;100413.72;;;28.37;40.43
50854;BME280;44154;45.506;-122.806;2022-09-13T09:55:46;100423.72;;;28.58;40.29
50854;BME280;44154;45.506;-122.806;2022-09-13T09:58:13;100421.84;;;28.53;40.10
50854;BME280;44154;45.506;-122.806;2022-09-13T10:00:52;100427.94;;;28.50;39.86
50854;BME280;44154;45.506;-122.806;2022-09-13T10:03:24;100366.38;;;28.11;40.00
50854;BME280;44154;45.506;-122.806;2022-09-13T10:06:07;100421.19;;;28.37;39.95
50854;BME280;44154;45.506;-122.806;2022-09-13T10:08:35;100325.94;;;27.77;39.79
50854;BME280;44154;45.506;-122.806;2022-09-13T10:11:03;100394.09;;;28.20;39.87
50854;BME280;44154;45.506;-122.806;2022-09-13T10:13:31;100409.72;;;28.25;40.14
50854;BME280;44154;45.506;-122.806;2022-09-13T10:16:05;100425.81;;;28.42;40.04
50854;BME280;44154;45.506;-122.806;2022-09-13T10:18:34;100436.81;;;28.42;39.92
50854;BME280;44154;45.506;-122.806;2022-09-13T10:23:46;100346.50;;;27.85;39.99
50854;BME280;44154;45.506;-122.806;2022-09-13T10:26:13;100442.91;;;28.38;40.26
50854;BME280;44154;45.506;-122.806;2022-09-13T10:28:45;100430.25;;;28.37;39.96
50854;BME280;44154;45.506;-122.806;2022-09-13T10:31:14;100436.88;;;28.36;39.89
50854;BME280;44154;45.506;-122.806;2022-09-13T10:33:50;100439.88;;;28.35;40.00
50854;BME280;44154;45.506;-122.806;2022-09-13T10:36:36;100434.69;;;28.33;39.74
50854;BME280;44154;45.506;-122.806;2022-09-13T10:39:07;100431.63;;;28.35;39.45
50854;BME280;44154;45.506;-122.806;2022-09-13T10:41:39;100425.09;;;28.31;39.77
50854;BME280;44154;45.506;-122.806;2022-09-13T10:44:25;100428.66;;;28.31;39.90
50854;BME280;44154;45.506;-122.806;2022-09-13T10:46:52;100401.03;;;28.12;39.91
50854;BME280;44154;45.506;-122.806;2022-09-13T10:49:43;100428.13;;;28.29;39.83
50854;BME280;44154;45.506;-122.806;2022-09-13T10:53:04;100430.88;;;28.29;39.63
50854;BME280;44154;45.506;-122.806;2022-09-13T10:57:45;100428.13;;;28.29;40.12
50854;BME280;44154;45.506;-122.806;2022-09-13T11:00:17;100425.38;;;28.29;39.72
50854;BME280;44154;45.506;-122.806;2022-09-13T11:03:11;100383.56;;;27.98;40.16
50854;BME280;44154;45.506;-122.806;2022-09-13T11:08:36;100427.06;;;28.25;39.67
50854;BME280;44154;45.506;-122.806;2022-09-13T11:25:31;100407.84;;;28.20;39.56
50854;BME280;44154;45.506;-122.806;2022-09-13T11:36:39;100405.16;;;28.15;39.80
50854;BME280;44154;45.506;-122.806;2022-09-13T11:39:27;100394.97;;;28.15;39.73
50854;BME280;44154;45.506;-122.806;2022-09-13T11:44:34;100402.41;;;28.15;39.72
50854;BME280;44154;45.506;-122.806;2022-09-13T11:53:16;100391.75;;;28.03;39.50
50854;BME280;44154;45.506;-122.806;2022-09-13T11:55:46;100399.41;;;28.11;39.31
50854;BME280;44154;45.506;-122.806;2022-09-13T11:58:20;100400.50;;;28.10;39.55
50854;BME280;44154;45.506;-122.806;2022-09-13T12:01:12;100323.88;;;27.64;39.45
50854;BME280;44154;45.506;-122.806;2022-09-13T12:06:22;100396.94;;;28.10;39.87
50854;BME280;44154;45.506;-122.806;2022-09-13T12:08:55;100366.53;;;27.91;39.43
50854;BME280;44154;45.506;-122.806;2022-09-13T12:11:35;100390.38;;;28.06;39.58
50854;BME280;44154;45.506;-122.806;2022-09-13T12:14:11;100354.22;;;27.83;39.68
50854;BME280;44154;45.506;-122.806;2022-09-13T12:16:44;100391.47;;;28.04;39.76
50854;BME280;44154;45.506;-122.806;2022-09-13T12:19:20;100389.56;;;28.05;39.71
50854;BME280;44154;45.506;-122.806;2022-09-13T12:21:50;100380.75;;;28.03;39.27
50854;BME280;44154;45.506;-122.806;2022-09-13T12:24:22;100383.50;;;28.03;39.37
50854;BME280;44154;45.506;-122.806;2022-09-13T12:30:15;100372.28;;;27.99;39.42
50854;BME280;44154;45.506;-122.806;2022-09-13T12:32:43;100339.47;;;27.74;39.18
50854;BME280;44154;45.506;-122.806;2022-09-13T12:46:47;100374.50;;;27.92;39.54
50854;BME280;44154;45.506;-122.806;2022-09-13T12:49:30;100367.63;;;27.95;39.26
50854;BME280;44154;45.506;-122.806;2022-09-13T13:03:05;100370.00;;;27.72;42.83
50854;BME280;44154;45.506;-122.806;2022-09-13T13:06:09;100369.81;;;27.58;42.99
50854;BME280;44154;45.506;-122.806;2022-09-13T13:08:37;100367.94;;;27.54;42.83
50854;BME280;44154;45.506;-122.806;2022-09-13T13:11:07;100365.53;;;27.42;42.87
50854;BME280;44154;45.506;-122.806;2022-09-13T13:13:39;100376.53;;;27.42;42.83
50854;BME280;44154;45.506;-122.806;2022-09-13T13:16:30;100384.53;;;27.33;43.13
50854;BME280;44154;45.506;-122.806;2022-09-13T13:19:26;100382.59;;;27.28;43.40
50854;BME280;44154;45.506;-122.806;2022-09-13T13:21:48;100370.88;;;27.17;43.00
50854;BME280;44154;45.506;-122.806;2022-09-13T13:26:51;100379.91;;;27.18;43.47
50854;BME280;44154;45.506;-122.806;2022-09-13T13:41:54;100366.56;;;26.96;43.59
50854;BME280;44154;45.506;-122.806;2022-09-13T14:00:15;100383.84;;;27.02;43.22
50854;BME280;44154;45.506;-122.806;2022-09-13T14:02:49;100383.56;;;27.08;43.19
50854;BME280;44154;45.506;-122.806;2022-09-13T14:05:41;100383.00;;;27.11;43.03
50854;BME280;44154;45.506;-122.806;2022-09-13T14:16:40;100387.34;;;27.23;42.38
50854;BME280;44154;45.506;-122.806;2022-09-13T14:29:54;100390.88;;;27.23;42.33
50854;BME280;44154;45.506;-122.806;2022-09-13T14:32:25;100392.28;;;27.21;43.02
50854;BME280;44154;45.506;-122.806;2022-09-13T14:37:25;100375.34;;;27.03;42.96
50854;BME280;44154;45.506;-122.806;2022-09-13T14:40:15;100374.25;;;26.99;43.25
50854;BME280;44154;45.506;-122.806;2022-09-13T14:42:44;100391.22;;;27.11;42.70
50854;BME280;44154;45.506;-122.806;2022-09-13T14:45:40;100389.88;;;27.09;43.12
50854;BME280;44154;45.506;-122.806;2022-09-13T14:51:06;100389.06;;;27.08;42.82
50854;BME280;44154;45.506;-122.806;2022-09-13T14:53:39;100392.56;;;27.14;42.97
50854;BME280;44154;45.506;-122.806;2022-09-13T14:56:15;100392.56;;;27.14;42.75
50854;BME280;44154;45.506;-122.806;2022-09-13T14:58:55;100391.47;;;27.15;42.52
50854;BME280;44154;45.506;-122.806;2022-09-13T15:01:34;100391.75;;;27.18;42.54
50854;BME280;44154;45.506;-122.806;2022-09-13T15:04:02;100389.81;;;27.19;42.17
50854;BME280;44154;45.506;-122.806;2022-09-13T15:06:32;100387.06;;;27.19;42.34
50854;BME280;44154;45.506;-122.806;2022-09-13T15:14:29;100380.47;;;27.20;42.07
50854;BME280;44154;45.506;-122.806;2022-09-13T15:19:37;100385.41;;;27.18;42.06
50854;BME280;44154;45.506;-122.806;2022-09-13T15:24:42;100359.09;;;27.07;42.04
50854;BME280;44154;45.506;-122.806;2022-09-13T15:28:00;100378.81;;;27.19;42.20
50854;BME280;44154;45.506;-122.806;2022-09-13T15:30:28;100365.66;;;27.11;42.11
50854;BME280;44154;45.506;-122.806;2022-09-13T15:35:38;100385.97;;;27.20;42.20
50854;BME280;44154;45.506;-122.806;2022-09-13T15:38:29;100393.94;;;27.16;41.87
50854;BME280;44154;45.506;-122.806;2022-09-13T15:41:08;100385.69;;;27.16;42.02
50854;BME280;44154;45.506;-122.806;2022-09-13T15:43:37;100391.47;;;27.15;42.40
50854;BME280;44154;45.506;-122.806;2022-09-13T15:46:05;100388.72;;;27.15;41.97
50854;BME280;44154;45.506;-122.806;2022-09-13T15:48:33;100389.56;;;27.15;42.28
50854;BME280;44154;45.506;-122.806;2022-09-13T15:51:12;100395.88;;;27.16;42.02
50854;BME280;44154;45.506;-122.806;2022-09-13T15:53:40;100385.69;;;27.16;42.17
50854;BME280;44154;45.506;-122.806;2022-09-13T15:56:08;100392.31;;;27.15;42.07
50854;BME280;44154;45.506;-122.806;2022-09-13T15:58:37;100396.44;;;27.13;42.67
50854;BME280;44154;45.506;-122.806;2022-09-13T16:01:03;100393.97;;;27.11;42.35
50854;BME280;44154;45.506;-122.806;2022-09-13T16:03:30;100388.22;;;27.08;42.54
50854;BME280;44154;45.506;-122.806;2022-09-13T16:05:57;100378.94;;;26.98;42.69
50854;BME280;44154;45.506;-122.806;2022-09-13T16:08:23;100389.34;;;27.02;42.82
50854;BME280;44154;45.506;-122.806;2022-09-13T16:10:50;100398.69;;;27.00;42.39
50854;BME280;44154;45.506;-122.806;2022-09-13T16:13:16;100400.91;;;26.98;42.39